createdAt,value
2023-02-23T00:00:21.366Z,72790.00
2023-02-23T00:00:56.446Z,72786.00
2023-02-23T00:01:30.248Z,72782.03
2023-02-23T00:02:07.467Z,72784.03
2023-02-23T00:02:39.778Z,72786.00
2023-02-23T00:03:14.698Z,72786.00
2023-02-23T00:03:47.170Z,72782.03
2023-02-23T00:04:19.409Z,72782.03
2023-02-23T00:04:54.296Z,72790.00
2023-02-23T00:05:26.896Z,72782.03
2023-02-23T00:06:03.567Z,72786.00
2023-02-23T00:06:37.445Z,72790.00
2023-02-23T00:07:12.519Z,72790.00
2023-02-23T00:07:45.446Z,72786.00
2023-02-23T00:08:17.756Z,72784.03
2023-02-23T00:08:52.589Z,72786.00
2023-02-23T00:09:25.017Z,72786.00
2023-02-23T00:09:57.283Z,72786.00
2023-02-23T00:10:33.657Z,72786.00
2023-02-23T00:11:07.342Z,72786.00
2023-02-23T00:11:39.651Z,72786.00
2023-02-23T00:12:17.015Z,72786.00
2023-02-23T00:12:49.662Z,72790.00
2023-02-23T00:13:21.898Z,72790.00
2023-02-23T00:13:57.359Z,72796.00
2023-02-23T00:14:31.329Z,72786.00
2023-02-23T00:15:03.777Z,72790.00
2023-02-23T00:15:41.277Z,72792.00
2023-02-23T00:16:17.407Z,72790.00
2023-02-23T00:16:49.713Z,72790.00
2023-02-23T00:17:24.649Z,72790.00
2023-02-23T00:17:57.846Z,72784.03
2023-02-23T00:18:30.268Z,72786.00
2023-02-23T00:19:08.303Z,72786.00
2023-02-23T00:19:43.696Z,72786.00
2023-02-23T00:20:16.745Z,72786.00
2023-02-23T00:20:58.275Z,72786.00
2023-02-23T00:21:32.896Z,72786.00
2023-02-23T00:22:05.163Z,72778.03
2023-02-23T00:22:41.815Z,72786.00
2023-02-23T00:23:15.167Z,72786.00
2023-02-23T00:23:52.874Z,72786.00
2023-02-23T00:24:27.731Z,72786.00
2023-02-23T00:24:59.988Z,72782.03
2023-02-23T00:25:32.232Z,72782.03
2023-02-23T00:26:07.524Z,72782.03
2023-02-23T00:26:40.328Z,72780.03
2023-02-23T00:27:21.058Z,72782.03
2023-02-23T00:27:56.056Z,72782.03
2023-02-23T00:28:28.675Z,72784.03
2023-02-23T00:29:01.591Z,72786.00
2023-02-23T00:29:40.167Z,72782.03
2023-02-23T00:30:13.836Z,72786.00
2023-02-23T00:30:48.895Z,72792.00
2023-02-23T00:31:27.056Z,72788.00
2023-02-23T00:31:59.388Z,72790.00
2023-02-23T00:32:31.827Z,72786.00
2023-02-23T00:33:07.594Z,72784.03
2023-02-23T00:33:41.083Z,72782.03
2023-02-23T00:34:15.169Z,72786.00
2023-02-23T00:34:51.358Z,72788.00
2023-02-23T00:35:25.164Z,72790.00
2023-02-23T00:36:04.208Z,72790.00
2023-02-23T00:36:39.624Z,72790.00
2023-02-23T00:37:12.396Z,72782.03
2023-02-23T00:37:45.768Z,72792.00
2023-02-23T00:38:21.856Z,72794.00
2023-02-23T00:38:54.997Z,72794.00
2023-02-23T00:39:29.509Z,72794.00
2023-02-23T00:40:05.777Z,72790.00
2023-02-23T00:40:41.059Z,72790.00
2023-02-23T00:41:17.821Z,72786.00
2023-02-23T00:41:54.028Z,72786.00
2023-02-23T00:42:29.754Z,72786.00
2023-02-23T00:43:06.622Z,72786.00
2023-02-23T00:43:47.630Z,72786.00
2023-02-23T00:44:21.374Z,72778.03
2023-02-23T00:44:53.663Z,72786.00
2023-02-23T00:45:28.825Z,72786.00
2023-02-23T00:46:06.126Z,72786.00
2023-02-23T00:46:38.661Z,72784.03
2023-02-23T00:47:13.790Z,72782.03
2023-02-23T00:47:48.535Z,72788.00
2023-02-23T00:48:21.080Z,72782.03
2023-02-23T00:48:57.221Z,72778.03
2023-02-23T00:49:29.595Z,72782.03
2023-02-23T00:50:02.151Z,72786.00
2023-02-23T00:50:39.128Z,72788.00
2023-02-23T00:51:12.343Z,72790.00
2023-02-23T00:51:45.653Z,72782.03
2023-02-23T00:52:20.509Z,72790.00
2023-02-23T00:52:52.792Z,72792.00
2023-02-23T00:53:27.321Z,72790.00
2023-02-23T00:54:02.956Z,72784.03
2023-02-23T00:54:36.211Z,72786.00
2023-02-23T00:55:10.408Z,72790.00
2023-02-23T00:55:45.378Z,72786.00
2023-02-23T00:56:17.632Z,72786.00
2023-02-23T00:56:50.105Z,72786.00
2023-02-23T00:57:25.245Z,72788.00
2023-02-23T00:57:58.500Z,72786.00
2023-02-23T00:58:31.442Z,72790.00
2023-02-23T00:59:06.957Z,72786.00
2023-02-23T00:59:39.219Z,72790.00
2023-02-23T01:00:16.566Z,72782.03
2023-02-23T01:00:51.426Z,72786.00
2023-02-23T01:01:29.513Z,72790.00
2023-02-23T01:02:01.786Z,72792.00
2023-02-23T01:02:36.704Z,72790.00
2023-02-23T01:03:08.995Z,72794.00
2023-02-23T01:03:43.169Z,72790.00
2023-02-23T01:04:18.346Z,72788.00
2023-02-23T01:04:52.868Z,72790.00
2023-02-23T01:05:25.214Z,72790.00
2023-02-23T01:06:05.392Z,72786.00
2023-02-23T01:06:38.218Z,72792.00
2023-02-23T01:07:13.079Z,72801.97
2023-02-23T01:07:49.380Z,72794.00
2023-02-23T01:08:22.476Z,72794.00
2023-02-23T01:08:57.024Z,72798.00
2023-02-23T01:09:32.208Z,72794.00
2023-02-23T01:10:19.012Z,72794.00
2023-02-23T01:10:53.414Z,72796.00
2023-02-23T01:11:31.143Z,72796.00
2023-02-23T01:12:07.522Z,72794.00
2023-02-23T01:12:40.492Z,72796.00
2023-02-23T01:13:18.191Z,72794.00
2023-02-23T01:13:52.820Z,72794.00
2023-02-23T01:14:25.408Z,72792.00
2023-02-23T01:15:00.240Z,72794.00
2023-02-23T01:15:32.805Z,72790.00
2023-02-23T01:16:07.153Z,72788.00
2023-02-23T01:16:42.020Z,72792.00
2023-02-23T01:17:18.030Z,72798.00
2023-02-23T01:17:50.268Z,72792.00
2023-02-23T01:18:22.584Z,72794.00
2023-02-23T01:18:55.503Z,72788.00
2023-02-23T01:19:34.253Z,72792.00
2023-02-23T01:20:15.709Z,72794.00
2023-02-23T01:20:48.064Z,72788.00
2023-02-23T01:21:25.499Z,72790.00
2023-02-23T01:21:58.372Z,72796.00
2023-02-23T01:22:32.030Z,72794.00
2023-02-23T01:23:07.603Z,72788.00
2023-02-23T01:23:39.874Z,72786.00
2023-02-23T01:24:12.832Z,72794.00
2023-02-23T01:24:47.659Z,72792.00
2023-02-23T01:25:20.263Z,72794.00
2023-02-23T01:25:52.479Z,72790.00
2023-02-23T01:26:28.851Z,72784.03
2023-02-23T01:27:01.132Z,72792.00
2023-02-23T01:27:35.612Z,72796.00
2023-02-23T01:28:10.500Z,72790.00
2023-02-23T01:28:43.376Z,72790.00
2023-02-23T01:29:18.222Z,72796.00
2023-02-23T01:29:53.109Z,72794.00
2023-02-23T01:30:25.372Z,72794.00
2023-02-23T01:30:57.772Z,72786.00
2023-02-23T01:31:30.557Z,72790.00
2023-02-23T01:32:08.570Z,72792.00
2023-02-23T01:32:41.772Z,72794.00
2023-02-23T01:33:14.172Z,72794.00
2023-02-23T01:33:46.548Z,72786.00
2023-02-23T01:34:22.567Z,72786.00
2023-02-23T01:34:55.880Z,72786.00
2023-02-23T01:35:28.420Z,72790.00
2023-02-23T01:36:03.300Z,72788.00
2023-02-23T01:36:37.203Z,72786.00
2023-02-23T01:37:09.469Z,72790.00
2023-02-23T01:37:45.643Z,72782.03
2023-02-23T01:38:18.926Z,72778.03
2023-02-23T01:38:55.361Z,72780.03
2023-02-23T01:39:30.208Z,72786.00
2023-02-23T01:40:06.261Z,72784.03
2023-02-23T01:40:39.425Z,72778.03
2023-02-23T01:41:11.680Z,72782.03
2023-02-23T01:41:47.176Z,72788.00
2023-02-23T01:42:20.407Z,72782.03
2023-02-23T01:42:52.692Z,72778.03
2023-02-23T01:43:26.257Z,72778.03
2023-02-23T01:44:03.945Z,72778.03
2023-02-23T01:45:13.673Z,72774.03
2023-02-23T01:45:48.848Z,72774.03
2023-02-23T01:46:22.164Z,72782.03
2023-02-23T01:46:54.444Z,72780.03
2023-02-23T01:47:30.023Z,72770.06
2023-02-23T01:48:08.793Z,72774.03
2023-02-23T01:48:41.132Z,72782.03
2023-02-23T01:49:16.060Z,72774.03
2023-02-23T01:49:48.548Z,72774.03
2023-02-23T01:50:24.628Z,72774.03
2023-02-23T01:51:00.940Z,72778.03
2023-02-23T01:51:38.889Z,72776.03
2023-02-23T01:52:15.862Z,72774.03
2023-02-23T01:52:50.931Z,72778.03
2023-02-23T01:53:24.673Z,72776.03
2023-02-23T01:54:03.480Z,72774.03
2023-02-23T01:54:38.265Z,72776.03
2023-02-23T01:55:13.147Z,72770.06
2023-02-23T01:55:49.970Z,72774.03
2023-02-23T01:56:24.968Z,72772.03
2023-02-23T01:56:58.885Z,72778.03
2023-02-23T01:57:34.281Z,72770.06
2023-02-23T01:58:15.395Z,72778.03
2023-02-23T01:58:52.087Z,72782.03
2023-02-23T01:59:32.900Z,72778.03
2023-02-23T02:00:07.947Z,72774.03
2023-02-23T02:00:50.991Z,72776.03
2023-02-23T02:01:23.699Z,72778.03
2023-02-23T02:01:56.520Z,72776.03
2023-02-23T02:02:35.671Z,72772.03
2023-02-23T02:03:13.229Z,72782.03
2023-02-23T02:03:47.348Z,72780.03
2023-02-23T02:04:22.336Z,72770.06
2023-02-23T02:04:56.535Z,72782.03
2023-02-23T02:05:33.646Z,72778.03
2023-02-23T02:06:10.191Z,72774.03
2023-02-23T02:06:44.686Z,72778.03
2023-02-23T02:07:19.398Z,72778.03
2023-02-23T02:07:59.203Z,72768.06
2023-02-23T02:08:33.034Z,72776.03
2023-02-23T02:09:10.360Z,72776.03
2023-02-23T02:10:05.511Z,72778.03
2023-02-23T02:10:44.464Z,72766.06
2023-02-23T02:11:26.352Z,72770.06
2023-02-23T02:12:02.747Z,72770.06
2023-02-23T02:12:35.032Z,72774.03
2023-02-23T02:13:09.176Z,72774.03
2023-02-23T02:13:44.266Z,72774.03
2023-02-23T02:14:18.254Z,72770.06
2023-02-23T02:14:52.104Z,72772.03
2023-02-23T02:15:31.616Z,72774.03
2023-02-23T02:16:29.581Z,72770.06
2023-02-23T02:17:25.607Z,72772.03
2023-02-23T02:18:09.400Z,72774.03
2023-02-23T02:19:08.981Z,72772.03
2023-02-23T02:20:14.792Z,72766.06
2023-02-23T02:21:28.535Z,72770.06
2023-02-23T02:22:51.449Z,72774.03
2023-02-23T02:24:00.901Z,72774.03
2023-02-23T02:25:13.385Z,72770.06
2023-02-23T02:25:55.146Z,72768.06
2023-02-23T02:26:34.478Z,72766.06
2023-02-23T02:27:26.699Z,72764.06
2023-02-23T02:28:29.784Z,72770.06
2023-02-23T02:29:31.398Z,72768.06
2023-02-23T02:30:24.179Z,72770.06
2023-02-23T02:31:16.198Z,72772.03
2023-02-23T02:32:06.116Z,72770.06
2023-02-23T02:33:01.189Z,72772.03
2023-02-23T02:33:48.924Z,72766.06
2023-02-23T02:34:37.241Z,72770.06
2023-02-23T02:35:47.711Z,72762.06
2023-02-23T02:37:07.618Z,72762.06
2023-02-23T02:38:01.846Z,72762.06
2023-02-23T02:38:37.846Z,72758.06
2023-02-23T02:39:23.020Z,72766.06
2023-02-23T02:40:16.206Z,72766.06
2023-02-23T02:40:53.619Z,72760.06
2023-02-23T02:41:35.884Z,72762.06
2023-02-23T02:42:18.118Z,72766.06
2023-02-23T02:43:08.315Z,72764.06
2023-02-23T02:43:51.020Z,72766.06
2023-02-23T02:44:28.359Z,72762.06
2023-02-23T02:45:07.839Z,72758.06
2023-02-23T02:45:51.858Z,72764.06
2023-02-23T02:46:27.451Z,72766.06
2023-02-23T02:47:04.811Z,72762.06
2023-02-23T02:47:50.503Z,72762.06
2023-02-23T02:48:31.185Z,72762.06
2023-02-23T02:49:07.493Z,72762.06
2023-02-23T02:49:46.773Z,72758.06
2023-02-23T02:50:22.841Z,72760.06
2023-02-23T02:50:57.977Z,72762.06
2023-02-23T02:51:39.739Z,72758.06
2023-02-23T02:52:16.983Z,72758.06
2023-02-23T02:52:56.332Z,72758.06
2023-02-23T02:53:36.823Z,72758.06
2023-02-23T02:54:15.230Z,72758.06
2023-02-23T02:54:53.341Z,72756.06
2023-02-23T02:55:34.258Z,72756.06
2023-02-23T02:56:07.393Z,72750.09
2023-02-23T02:56:43.965Z,72748.09
2023-02-23T02:57:19.793Z,72746.09
2023-02-23T02:57:56.667Z,72754.09
2023-02-23T02:58:29.868Z,72756.06
2023-02-23T02:59:06.392Z,72746.09
2023-02-23T03:00:00.771Z,72750.09
2023-02-23T03:00:54.126Z,72750.09
2023-02-23T03:01:41.454Z,72746.09
2023-02-23T03:02:32.187Z,72754.09
2023-02-23T03:03:26.230Z,72748.09
2023-02-23T03:04:14.472Z,72754.09
2023-02-23T03:05:01.747Z,72746.09
2023-02-23T03:05:54.902Z,72752.09
2023-02-23T03:06:45.717Z,72750.09
2023-02-23T03:07:38.589Z,72750.09
2023-02-23T03:08:37.117Z,72750.09
2023-02-23T03:09:35.284Z,72750.09
2023-02-23T03:10:27.837Z,72756.06
2023-02-23T03:11:18.607Z,72758.06
2023-02-23T03:12:11.561Z,72750.09
2023-02-23T03:13:04.649Z,72754.09
2023-02-23T03:14:02.023Z,72754.09
2023-02-23T03:14:55.260Z,72754.09
2023-02-23T03:15:52.840Z,72762.06
2023-02-23T03:16:46.506Z,72766.06
2023-02-23T03:17:41.458Z,72758.06
2023-02-23T03:18:40.864Z,72762.06
2023-02-23T03:19:32.914Z,72760.06
2023-02-23T03:20:28.568Z,72762.06
2023-02-23T03:21:20.914Z,72754.09
2023-02-23T03:22:12.442Z,72758.06
2023-02-23T03:23:09.115Z,72756.06
2023-02-23T03:24:04.646Z,72760.06
2023-02-23T03:24:56.361Z,72758.06
2023-02-23T03:25:50.102Z,72758.06
2023-02-23T03:26:44.458Z,72764.06
2023-02-23T03:27:35.349Z,72756.06
2023-02-23T03:28:27.331Z,72762.06
2023-02-23T03:29:18.854Z,72762.06
2023-02-23T03:30:10.860Z,72762.06
2023-02-23T03:31:04.015Z,72762.06
2023-02-23T03:31:55.168Z,72764.06
2023-02-23T03:32:45.335Z,72762.06
2023-02-23T03:33:39.546Z,72762.06
2023-02-23T03:34:31.173Z,72772.03
2023-02-23T03:35:22.197Z,72764.06
2023-02-23T03:36:14.846Z,72770.06
2023-02-23T03:37:07.880Z,72770.06
2023-02-23T03:37:57.809Z,72770.06
2023-02-23T03:38:49.401Z,72770.06
2023-02-23T03:39:46.473Z,72774.03
2023-02-23T03:40:36.266Z,72774.03
2023-02-23T03:41:24.255Z,72774.03
2023-02-23T03:42:13.305Z,72778.03
2023-02-23T03:43:01.439Z,72770.06
2023-02-23T03:43:51.838Z,72782.03
2023-02-23T03:44:42.900Z,72778.03
2023-02-23T03:45:33.290Z,72778.03
2023-02-23T03:46:23.600Z,72778.03
2023-02-23T03:47:11.353Z,72782.03
2023-02-23T03:47:59.674Z,72786.00
2023-02-23T03:48:47.504Z,72778.03
2023-02-23T03:49:36.030Z,72774.03
2023-02-23T03:50:33.524Z,72780.03
2023-02-23T03:51:23.056Z,72774.03
2023-02-23T03:52:14.080Z,72780.03
2023-02-23T03:53:04.393Z,72782.03
2023-02-23T03:54:03.810Z,72778.03
2023-02-23T03:54:56.374Z,72778.03
2023-02-23T03:55:47.240Z,72780.03
2023-02-23T03:56:35.704Z,72778.03
2023-02-23T03:57:25.752Z,72778.03
2023-02-23T03:58:14.927Z,72772.03
2023-02-23T03:59:05.382Z,72778.03
2023-02-23T03:59:56.157Z,72774.03
2023-02-23T04:00:45.908Z,72774.03
2023-02-23T04:01:35.468Z,72776.03
2023-02-23T04:02:24.340Z,72774.03
2023-02-23T04:03:12.631Z,72774.03
2023-02-23T04:04:00.817Z,72776.03
2023-02-23T04:04:49.090Z,72774.03
2023-02-23T04:05:38.127Z,72770.06
2023-02-23T04:06:28.087Z,72774.03
2023-02-23T04:07:17.396Z,72778.03
2023-02-23T04:08:06.011Z,72774.03
2023-02-23T04:08:54.053Z,72770.06
2023-02-23T04:09:41.341Z,72774.03
2023-02-23T04:10:31.901Z,72774.03
2023-02-23T04:11:25.279Z,72768.06
2023-02-23T04:12:15.619Z,72772.03
2023-02-23T04:13:09.030Z,72766.06
2023-02-23T04:13:42.080Z,72770.06
2023-02-23T04:14:18.032Z,72774.03
2023-02-23T04:14:55.726Z,72770.06
2023-02-23T04:15:31.115Z,72766.06
2023-02-23T04:16:05.716Z,72770.06
2023-02-23T04:16:38.404Z,72772.03
2023-02-23T04:17:10.847Z,72766.06
2023-02-23T04:17:46.226Z,72766.06
2023-02-23T04:18:22.639Z,72770.06
2023-02-23T04:18:55.301Z,72770.06
2023-02-23T04:19:30.731Z,72764.06
2023-02-23T04:20:03.476Z,72770.06
2023-02-23T04:20:35.775Z,72770.06
2023-02-23T04:21:10.705Z,72768.06
2023-02-23T04:21:43.085Z,72762.06
2023-02-23T04:22:15.336Z,72766.06
2023-02-23T04:22:47.604Z,72770.06
2023-02-23T04:23:23.016Z,72770.06
2023-02-23T04:23:55.284Z,72774.03
2023-02-23T04:24:27.506Z,72770.06
2023-02-23T04:25:02.426Z,72770.06
2023-02-23T04:25:37.549Z,72774.03
2023-02-23T04:26:12.437Z,72772.03
2023-02-23T04:26:44.708Z,72778.03
2023-02-23T04:27:17.831Z,72774.03
2023-02-23T04:27:52.702Z,72770.06
2023-02-23T04:28:26.599Z,72778.03
2023-02-23T04:28:58.880Z,72778.03
2023-02-23T04:29:33.697Z,72778.03
2023-02-23T04:30:07.524Z,72774.03
2023-02-23T04:30:39.820Z,72778.03
2023-02-23T04:31:14.682Z,72778.03
2023-02-23T04:31:47.442Z,72774.03
2023-02-23T04:32:21.079Z,72776.03
2023-02-23T04:32:53.422Z,72782.03
2023-02-23T04:33:28.343Z,72778.03
2023-02-23T04:34:00.596Z,72778.03
2023-02-23T04:34:32.905Z,72780.03
2023-02-23T04:35:08.507Z,72774.03
2023-02-23T04:35:40.985Z,72774.03
2023-02-23T04:36:13.213Z,72774.03
2023-02-23T04:36:48.043Z,72778.03
2023-02-23T04:37:20.300Z,72778.03
2023-02-23T04:37:52.540Z,72774.03
2023-02-23T04:38:27.417Z,72774.03
2023-02-23T04:38:59.700Z,72780.03
2023-02-23T04:39:32.168Z,72778.03
2023-02-23T04:40:05.425Z,72786.00
2023-02-23T04:40:42.949Z,72778.03
2023-02-23T04:41:15.357Z,72778.03
2023-02-23T04:41:49.012Z,72778.03
2023-02-23T04:42:23.849Z,72774.03
2023-02-23T04:42:56.451Z,72774.03
2023-02-23T04:43:28.680Z,72786.00
2023-02-23T04:44:03.536Z,72770.06
2023-02-23T04:44:35.783Z,72774.03
2023-02-23T04:45:09.467Z,72774.03
2023-02-23T04:45:44.750Z,72778.03
2023-02-23T04:46:17.089Z,72778.03
2023-02-23T04:46:49.347Z,72782.03
2023-02-23T04:47:24.712Z,72778.03
2023-02-23T04:47:56.944Z,72778.03
2023-02-23T04:48:29.167Z,72774.03
2023-02-23T04:49:04.377Z,72780.03
2023-02-23T04:49:36.634Z,72780.03
2023-02-23T04:50:10.916Z,72778.03
2023-02-23T04:50:45.743Z,72778.03
2023-02-23T04:51:18.320Z,72778.03
2023-02-23T04:51:50.795Z,72778.03
2023-02-23T04:52:25.687Z,72778.03
2023-02-23T04:52:57.923Z,72778.03
2023-02-23T04:53:32.761Z,72782.03
2023-02-23T04:54:05.762Z,72782.03
2023-02-23T04:54:39.095Z,72778.03
2023-02-23T04:55:19.409Z,72786.00
2023-02-23T04:55:54.875Z,72778.03
2023-02-23T04:56:27.128Z,72782.03
2023-02-23T04:57:01.977Z,72778.03
2023-02-23T04:57:34.311Z,72786.00
2023-02-23T04:58:06.548Z,72786.00
2023-02-23T04:58:42.006Z,72782.03
2023-02-23T04:59:14.296Z,72788.00
2023-02-23T04:59:46.537Z,72786.00
2023-02-23T05:00:22.425Z,72786.00
2023-02-23T05:00:54.670Z,72786.00
2023-02-23T05:01:27.249Z,72786.00
2023-02-23T05:02:02.314Z,72782.03
2023-02-23T05:02:34.576Z,72782.03
2023-02-23T05:03:06.925Z,72786.00
2023-02-23T05:03:41.770Z,72786.00
2023-02-23T05:04:14.041Z,72786.00
2023-02-23T05:04:46.405Z,72788.00
2023-02-23T05:05:21.647Z,72780.03
2023-02-23T05:05:53.885Z,72794.00
2023-02-23T05:06:26.339Z,72782.03
2023-02-23T05:07:01.180Z,72786.00
2023-02-23T05:07:33.423Z,72784.03
2023-02-23T05:08:06.390Z,72790.00
2023-02-23T05:08:41.240Z,72786.00
2023-02-23T05:09:13.473Z,72786.00
2023-02-23T05:09:45.717Z,72786.00
2023-02-23T05:10:20.702Z,72786.00
2023-02-23T05:10:55.536Z,72778.03
2023-02-23T05:11:27.982Z,72782.03
2023-02-23T05:12:00.437Z,72782.03
2023-02-23T05:12:35.415Z,72782.03
2023-02-23T05:13:07.844Z,72780.03
2023-02-23T05:13:40.193Z,72778.03
2023-02-23T05:14:15.074Z,72776.03
2023-02-23T05:14:47.536Z,72778.03
2023-02-23T05:15:19.801Z,72786.00
2023-02-23T05:15:59.293Z,72778.03
2023-02-23T05:16:31.580Z,72774.03
2023-02-23T05:17:03.848Z,72782.03
2023-02-23T05:17:41.462Z,72782.03
2023-02-23T05:18:13.896Z,72770.06
2023-02-23T05:18:48.758Z,72774.03
2023-02-23T05:19:21.085Z,72774.03
2023-02-23T05:19:53.829Z,72776.03
2023-02-23T05:20:28.731Z,72774.03
2023-02-23T05:21:06.110Z,72778.03
2023-02-23T05:21:39.162Z,72772.03
2023-02-23T05:22:14.014Z,72778.03
2023-02-23T05:22:46.245Z,72774.03
2023-02-23T05:23:19.279Z,72772.03
2023-02-23T05:23:54.151Z,72768.06
2023-02-23T05:24:26.465Z,72770.06
2023-02-23T05:24:58.694Z,72766.06
2023-02-23T05:25:33.570Z,72774.03
2023-02-23T05:26:11.798Z,72770.06
2023-02-23T05:26:44.044Z,72774.03
2023-02-23T05:27:18.939Z,72766.06
2023-02-23T05:27:51.264Z,72766.06
2023-02-23T05:28:24.503Z,72766.06
2023-02-23T05:28:59.995Z,72772.03
2023-02-23T05:29:32.244Z,72768.06
2023-02-23T05:30:05.685Z,72768.06
2023-02-23T05:30:40.721Z,72762.06
2023-02-23T05:31:13.069Z,72770.06
2023-02-23T05:31:46.258Z,72762.06
2023-02-23T05:32:21.232Z,72766.06
2023-02-23T05:32:53.483Z,72770.06
2023-02-23T05:33:25.825Z,72766.06
2023-02-23T05:34:00.730Z,72768.06
2023-02-23T05:34:32.989Z,72766.06
2023-02-23T05:35:06.337Z,72766.06
2023-02-23T05:35:42.820Z,72770.06
2023-02-23T05:36:17.247Z,72770.06
2023-02-23T05:36:49.475Z,72768.06
2023-02-23T05:37:24.307Z,72768.06
2023-02-23T05:37:56.633Z,72774.03
2023-02-23T05:38:28.880Z,72768.06
2023-02-23T05:39:03.771Z,72766.06
2023-02-23T05:39:36.034Z,72772.03
2023-02-23T05:40:09.969Z,72772.03
2023-02-23T05:40:44.848Z,72770.06
2023-02-23T05:41:21.912Z,72770.06
2023-02-23T05:41:54.408Z,72778.03
2023-02-23T05:42:29.390Z,72766.06
2023-02-23T05:43:01.678Z,72776.03
2023-02-23T05:43:34.246Z,72770.06
2023-02-23T05:44:09.113Z,72778.03
2023-02-23T05:44:41.424Z,72770.06
2023-02-23T05:45:14.368Z,72774.03
2023-02-23T05:45:49.227Z,72774.03
2023-02-23T05:46:24.228Z,72776.03
2023-02-23T05:46:56.577Z,72774.03
2023-02-23T05:47:31.415Z,72770.06
2023-02-23T05:48:03.764Z,72774.03
2023-02-23T05:48:36.473Z,72770.06
2023-02-23T05:49:12.717Z,72780.03
2023-02-23T05:49:46.303Z,72774.03
2023-02-23T05:50:18.718Z,72774.03
2023-02-23T05:50:53.536Z,72774.03
2023-02-23T05:51:26.351Z,72780.03
2023-02-23T05:51:58.580Z,72778.03
2023-02-23T05:52:33.420Z,72778.03
2023-02-23T05:53:05.945Z,72786.00
2023-02-23T05:53:38.282Z,72778.03
2023-02-23T05:54:14.164Z,72786.00
2023-02-23T05:54:46.866Z,72782.03
2023-02-23T05:55:21.726Z,72786.00
2023-02-23T05:55:53.952Z,72790.00
2023-02-23T05:56:28.801Z,72782.03
2023-02-23T05:57:03.635Z,72786.00
2023-02-23T05:57:35.917Z,72786.00
2023-02-23T05:58:08.188Z,72786.00
2023-02-23T05:58:43.023Z,72786.00
2023-02-23T05:59:17.497Z,72782.03
2023-02-23T05:59:49.765Z,72786.00
2023-02-23T06:00:25.403Z,72786.00
2023-02-23T06:00:57.652Z,72786.00
2023-02-23T06:01:30.233Z,72782.03
2023-02-23T06:02:06.247Z,72786.00
2023-02-23T06:02:38.736Z,72782.03
2023-02-23T06:03:11.005Z,72784.03
2023-02-23T06:03:45.982Z,72788.00
2023-02-23T06:04:18.247Z,72786.00
2023-02-23T06:04:51.167Z,72790.00
2023-02-23T06:05:26.036Z,72786.00
2023-02-23T06:05:59.480Z,72782.03
2023-02-23T06:06:31.712Z,72782.03
2023-02-23T06:07:06.596Z,72782.03
2023-02-23T06:07:39.272Z,72786.00
2023-02-23T06:08:12.224Z,72782.03
2023-02-23T06:08:47.562Z,72782.03
2023-02-23T06:09:19.798Z,72786.00
2023-02-23T06:09:52.047Z,72782.03
2023-02-23T06:10:26.938Z,72786.00
2023-02-23T06:10:59.257Z,72784.03
2023-02-23T06:11:34.113Z,72778.03
2023-02-23T06:12:09.361Z,72790.00
2023-02-23T06:12:41.611Z,72794.00
2023-02-23T06:13:14.562Z,72792.00
2023-02-23T06:13:49.795Z,72792.00
2023-02-23T06:14:22.052Z,72786.00
2023-02-23T06:14:54.337Z,72790.00
2023-02-23T06:15:30.063Z,72788.00
2023-02-23T06:16:02.715Z,72786.00
2023-02-23T06:16:35.094Z,72790.00
2023-02-23T06:17:10.484Z,72790.00
2023-02-23T06:17:42.744Z,72794.00
2023-02-23T06:18:15.035Z,72794.00
2023-02-23T06:18:49.929Z,72792.00
2023-02-23T06:19:22.200Z,72792.00
2023-02-23T06:19:54.560Z,72796.00
2023-02-23T06:20:29.463Z,72796.00
2023-02-23T06:21:02.364Z,72792.00
2023-02-23T06:21:34.685Z,72794.00
2023-02-23T06:22:09.520Z,72794.00
2023-02-23T06:22:42.417Z,72796.00
2023-02-23T06:23:15.740Z,72794.00
2023-02-23T06:23:50.728Z,72794.00
2023-02-23T06:24:23.725Z,72794.00
2023-02-23T06:24:55.997Z,72794.00
2023-02-23T06:25:30.848Z,72796.00
2023-02-23T06:26:03.068Z,72794.00
2023-02-23T06:26:38.067Z,72798.00
2023-02-23T06:27:14.150Z,72794.00
2023-02-23T06:27:46.672Z,72794.00
2023-02-23T06:28:18.945Z,72796.00
2023-02-23T06:28:53.796Z,72790.00
2023-02-23T06:29:26.259Z,72794.00
2023-02-23T06:29:58.522Z,72796.00
2023-02-23T06:30:33.366Z,72796.00
2023-02-23T06:31:07.061Z,72786.00
2023-02-23T06:31:39.588Z,72790.00
2023-02-23T06:32:14.553Z,72801.97
2023-02-23T06:32:52.443Z,72796.00
2023-02-23T06:33:30.259Z,72798.00
2023-02-23T06:34:02.510Z,72794.00
2023-02-23T06:34:34.851Z,72794.00
2023-02-23T06:35:10.997Z,72792.00
2023-02-23T06:35:44.624Z,72794.00
2023-02-23T06:36:19.642Z,72794.00
2023-02-23T06:36:51.981Z,72798.00
2023-02-23T06:37:24.211Z,72794.00
2023-02-23T06:37:59.093Z,72794.00
2023-02-23T06:38:31.331Z,72794.00
2023-02-23T06:39:07.029Z,72803.97
2023-02-23T06:39:39.258Z,72800.00
2023-02-23T06:40:12.256Z,72794.00
2023-02-23T06:40:47.231Z,72796.00
2023-02-23T06:41:19.845Z,72794.00
2023-02-23T06:41:54.949Z,72801.97
2023-02-23T06:42:29.872Z,72792.00
2023-02-23T06:43:03.716Z,72798.00
2023-02-23T06:43:36.057Z,72798.00
2023-02-23T06:44:11.886Z,72798.00
2023-02-23T06:44:44.112Z,72798.00
2023-02-23T06:45:16.675Z,72796.00
2023-02-23T06:45:51.681Z,72801.97
2023-02-23T06:46:24.806Z,72801.97
2023-02-23T06:46:57.228Z,72801.97
2023-02-23T06:47:32.088Z,72798.00
2023-02-23T06:48:05.176Z,72805.97
2023-02-23T06:48:41.298Z,72801.97
2023-02-23T06:49:16.191Z,72801.97
2023-02-23T06:49:48.751Z,72803.97
2023-02-23T06:50:24.241Z,72800.00
2023-02-23T06:50:58.825Z,72801.97
2023-02-23T06:51:33.724Z,72805.97
2023-02-23T06:52:05.950Z,72798.00
2023-02-23T06:52:38.279Z,72801.97
2023-02-23T06:53:13.120Z,72794.00
2023-02-23T06:53:45.364Z,72803.97
2023-02-23T06:54:18.938Z,72809.97
2023-02-23T06:54:53.804Z,72796.00
2023-02-23T06:55:26.098Z,72803.97
2023-02-23T06:55:58.390Z,72811.97
2023-02-23T06:56:33.278Z,72809.97
2023-02-23T06:57:08.437Z,72805.97
2023-02-23T06:57:41.551Z,72801.97
2023-02-23T06:58:16.398Z,72813.97
2023-02-23T06:58:49.965Z,72809.97
2023-02-23T06:59:22.210Z,72803.97
2023-02-23T06:59:57.037Z,72809.97
2023-02-23T07:00:30.613Z,72801.97
2023-02-23T07:01:05.763Z,72813.97
2023-02-23T07:01:38.053Z,72809.97
2023-02-23T07:02:11.603Z,72809.97
2023-02-23T07:02:46.793Z,72805.97
2023-02-23T07:03:19.498Z,72813.97
2023-02-23T07:03:54.463Z,72813.97
2023-02-23T07:04:26.762Z,72809.97
2023-02-23T07:04:59.086Z,72815.97
2023-02-23T07:05:33.997Z,72809.97
2023-02-23T07:06:06.954Z,72813.97
2023-02-23T07:06:39.318Z,72813.97
2023-02-23T07:07:14.283Z,72813.97
2023-02-23T07:07:46.678Z,72819.94
2023-02-23T07:08:19.236Z,72815.97
2023-02-23T07:08:54.067Z,72815.97
2023-02-23T07:09:27.279Z,72817.94
2023-02-23T07:10:00.324Z,72817.94
2023-02-23T07:10:35.383Z,72825.94
2023-02-23T07:11:08.550Z,72821.94
2023-02-23T07:11:44.847Z,72821.94
2023-02-23T07:12:19.942Z,72821.94
2023-02-23T07:12:54.092Z,72817.94
2023-02-23T07:13:28.909Z,72819.94
2023-02-23T07:14:02.134Z,72821.94
2023-02-23T07:14:34.472Z,72821.94
2023-02-23T07:15:10.744Z,72819.94
2023-02-23T07:15:43.069Z,72823.94
2023-02-23T07:16:17.944Z,72819.94
2023-02-23T07:16:50.231Z,72821.94
2023-02-23T07:17:22.529Z,72823.94
2023-02-23T07:17:57.648Z,72821.94
2023-02-23T07:18:29.960Z,72817.94
2023-02-23T07:19:02.193Z,72823.94
2023-02-23T07:19:37.871Z,72821.94